createdAt,value
2022-11-10T00:05:19.192Z,92.05
2022-11-10T00:10:51.218Z,91.84
2022-11-10T00:16:23.268Z,91.71
2022-11-10T00:21:55.025Z,91.70
2022-11-10T00:27:26.716Z,91.23
2022-11-10T00:32:58.567Z,91.12
2022-11-10T00:38:30.433Z,90.93
2022-11-10T00:44:01.990Z,90.88
2022-11-10T00:49:33.962Z,91.41
2022-11-10T00:55:05.644Z,90.73
2022-11-10T01:00:37.353Z,91.13
2022-11-10T01:06:09.199Z,91.23
2022-11-10T01:11:41.024Z,91.07
2022-11-10T01:17:12.614Z,91.11
2022-11-10T01:28:16.067Z,91.29
2022-11-10T01:33:47.699Z,91.46
2022-11-10T01:39:19.414Z,91.53
2022-11-10T01:44:50.954Z,91.53
2022-11-10T01:50:22.882Z,91.37
2022-11-10T01:55:54.607Z,91.43
2022-11-10T02:01:26.102Z,91.29
2022-11-10T02:06:57.973Z,91.37
2022-11-10T02:12:29.615Z,91.54
2022-11-10T02:18:01.338Z,91.67
2022-11-10T02:23:33.347Z,91.61
2022-11-10T02:29:05.377Z,91.47
2022-11-10T02:34:37.332Z,90.66
2022-11-10T02:40:09.033Z,89.97
2022-11-10T02:45:40.673Z,89.09
2022-11-10T02:51:12.473Z,88.80
2022-11-10T02:56:44.444Z,89.59
2022-11-10T03:02:16.060Z,90.46
2022-11-10T03:07:47.917Z,91.44
2022-11-10T03:13:19.930Z,92.44
2022-11-10T03:18:51.577Z,92.87
2022-11-10T03:24:23.323Z,92.32
2022-11-10T03:29:55.056Z,92.39
2022-11-10T03:35:26.953Z,92.76
2022-11-10T03:46:30.399Z,92.71
2022-11-10T03:52:02.208Z,92.80
2022-11-10T03:57:33.717Z,92.64
2022-11-10T04:03:05.502Z,92.67
2022-11-10T04:08:37.608Z,92.51
2022-11-10T04:14:09.530Z,92.52
2022-11-10T04:19:41.521Z,92.47
2022-11-10T04:25:13.288Z,92.32
2022-11-10T04:30:45.179Z,92.57
2022-11-10T04:36:16.865Z,92.52
2022-11-10T04:41:48.717Z,92.38
2022-11-10T04:47:20.906Z,92.51
2022-11-10T04:52:52.792Z,92.75
2022-11-10T04:58:24.563Z,92.40
2022-11-10T05:03:56.758Z,92.43
2022-11-10T05:09:28.555Z,92.31
2022-11-10T05:15:00.388Z,92.17
2022-11-10T05:20:32.834Z,92.45
2022-11-10T05:26:04.842Z,92.52
2022-11-10T05:31:36.916Z,92.38
2022-11-10T05:37:08.988Z,92.65
2022-11-10T05:42:41.173Z,92.31
2022-11-10T05:48:13.341Z,92.12
2022-11-10T05:50:36.702Z,92.35
2022-11-10T06:01:40.280Z,92.50
2022-11-10T06:07:12.275Z,92.58
2022-11-10T06:12:44.913Z,92.64
2022-11-10T06:18:15.962Z,92.76
2022-11-10T06:23:47.967Z,92.96
2022-11-10T06:29:25.558Z,92.80
2022-11-10T06:34:52.851Z,92.82
2022-11-10T06:40:23.595Z,92.71
2022-11-10T06:45:55.341Z,92.54
2022-11-10T06:51:26.865Z,92.21
2022-11-10T06:56:58.839Z,92.17
2022-11-10T07:02:30.443Z,92.19
2022-11-10T07:08:02.224Z,92.43
2022-11-10T07:13:34.094Z,92.19
2022-11-10T07:19:05.788Z,92.31
2022-11-10T07:24:38.043Z,92.45
2022-11-10T07:30:10.111Z,92.72
2022-11-10T07:35:41.692Z,92.57
2022-11-10T07:41:13.252Z,92.81
2022-11-10T07:46:45.184Z,93.04
2022-11-10T07:52:17.009Z,93.01
2022-11-10T07:57:48.743Z,92.90
2022-11-10T08:03:21.056Z,92.85
2022-11-10T08:08:52.508Z,92.69
2022-11-10T08:14:24.379Z,93.38
2022-11-10T08:19:56.158Z,93.29
2022-11-10T08:25:31.726Z,91.65
2022-11-10T08:31:04.311Z,89.36
2022-11-10T08:36:31.443Z,87.71
2022-11-10T08:42:02.872Z,86.35
2022-11-10T08:47:34.621Z,85.71
2022-11-10T08:53:12.475Z,82.93
2022-11-10T08:58:52.768Z,82.24
2022-11-10T09:04:15.932Z,81.68
2022-11-10T09:10:06.018Z,79.78
2022-11-10T09:15:19.442Z,79.67
2022-11-10T09:20:57.264Z,79.92
2022-11-10T09:26:29.581Z,79.39
2022-11-10T09:32:01.293Z,78.51
2022-11-10T09:37:38.937Z,79.22
2022-11-10T09:43:16.467Z,77.75
2022-11-10T09:48:48.484Z,78.19
2022-11-10T09:54:26.425Z,77.93
2022-11-10T10:05:36.264Z,76.22
2022-11-10T10:11:08.041Z,79.06
2022-11-10T10:16:45.761Z,73.72
2022-11-10T10:22:18.681Z,71.71
2022-11-10T10:27:50.313Z,72.58
2022-11-10T10:33:22.184Z,71.38
2022-11-10T10:38:54.166Z,72.54
2022-11-10T10:44:26.419Z,73.77
2022-11-10T10:49:58.695Z,74.29
2022-11-10T10:55:30.899Z,74.11
2022-11-10T11:01:02.932Z,74.23
2022-11-10T11:06:34.788Z,73.21
2022-11-10T11:12:06.563Z,73.72
2022-11-10T11:17:38.373Z,73.38
2022-11-10T11:23:10.344Z,72.68
2022-11-10T11:28:42.362Z,72.63
2022-11-10T11:34:14.299Z,72.44
2022-11-10T11:39:52.545Z,72.69
2022-11-10T11:45:24.623Z,73.22
2022-11-10T11:50:56.714Z,73.73
2022-11-10T11:56:28.897Z,73.15
2022-11-10T12:02:00.871Z,72.41
2022-11-10T12:07:32.865Z,71.07
2022-11-10T12:13:04.938Z,71.70
2022-11-10T12:18:37.102Z,72.94
2022-11-10T12:24:10.571Z,72.68
2022-11-10T12:29:41.813Z,72.25
2022-11-10T12:35:14.026Z,71.86
2022-11-10T12:40:45.929Z,71.15
2022-11-10T12:51:49.693Z,71.82
2022-11-10T12:57:21.633Z,72.14
2022-11-10T13:02:53.423Z,71.19
2022-11-10T13:08:25.485Z,71.07
2022-11-10T13:13:59.753Z,71.60
2022-11-10T13:19:28.987Z,70.76
2022-11-10T13:25:01.248Z,71.28
2022-11-10T13:30:33.486Z,71.60
2022-11-10T13:36:05.273Z,71.26
2022-11-10T13:41:37.590Z,70.50
2022-11-10T13:47:09.845Z,70.36
2022-11-10T13:52:41.964Z,70.25
2022-11-10T13:58:15.331Z,71.03
2022-11-10T14:03:47.206Z,70.53
2022-11-10T14:09:18.951Z,68.81
2022-11-10T14:14:50.774Z,70.71
2022-11-10T14:20:23.116Z,71.36
2022-11-10T14:25:55.207Z,70.18
2022-11-10T14:36:57.202Z,71.01
2022-11-10T14:42:29.351Z,72.00
2022-11-10T14:48:01.214Z,70.01
2022-11-10T14:53:33.478Z,70.25
2022-11-10T14:59:05.069Z,70.96
2022-11-10T15:04:36.861Z,71.27
2022-11-10T15:10:08.787Z,71.67
2022-11-10T15:15:40.533Z,71.91
2022-11-10T15:21:12.469Z,71.97
2022-11-10T15:26:44.141Z,71.96
2022-11-10T15:32:16.144Z,72.29
2022-11-10T15:37:47.754Z,72.82
2022-11-10T15:43:19.780Z,72.88
2022-11-10T15:48:51.654Z,73.44
2022-11-10T15:54:23.162Z,73.85
2022-11-10T15:59:55.134Z,74.14
2022-11-10T16:05:28.855Z,75.16
2022-11-10T16:11:00.648Z,75.09
2022-11-10T16:16:32.628Z,76.73
2022-11-10T16:22:04.623Z,76.78
2022-11-10T16:27:36.671Z,78.55
2022-11-10T16:33:08.486Z,78.19
2022-11-10T16:38:40.365Z,77.69
2022-11-10T16:44:12.734Z,79.28
2022-11-10T16:49:44.992Z,78.40
2022-11-10T16:55:17.284Z,79.13
2022-11-10T17:00:49.029Z,80.50
2022-11-10T17:06:20.974Z,80.69
2022-11-10T17:11:52.886Z,78.43
2022-11-10T17:17:25.057Z,78.52
2022-11-10T17:22:57.152Z,79.71
2022-11-10T17:28:29.532Z,80.35
2022-11-10T17:34:01.732Z,81.42
2022-11-10T17:39:34.255Z,80.13
2022-11-10T17:45:06.078Z,80.18
2022-11-10T17:50:38.010Z,80.34
2022-11-10T17:56:09.765Z,80.51
2022-11-10T18:01:41.768Z,82.35
2022-11-10T18:07:13.657Z,81.70
2022-11-10T18:12:45.507Z,82.75
2022-11-10T18:18:17.431Z,82.36
2022-11-10T18:23:49.600Z,82.93
2022-11-10T18:29:21.609Z,83.13
2022-11-10T18:34:53.417Z,82.21
2022-11-10T18:40:25.368Z,82.99
2022-11-10T18:45:57.250Z,83.08
2022-11-10T18:51:29.293Z,83.28
2022-11-10T18:57:01.242Z,82.91
2022-11-10T19:02:33.074Z,82.88
2022-11-10T19:04:44.336Z,83.04
2022-11-10T19:10:16.270Z,84.66
2022-11-10T19:15:47.961Z,84.33
2022-11-10T19:21:19.778Z,84.96
2022-11-10T19:26:51.495Z,85.19
2022-11-10T19:32:24.938Z,84.90
2022-11-10T19:37:55.104Z,84.61
2022-11-10T19:43:26.636Z,84.38
2022-11-10T19:48:58.520Z,84.50
2022-11-10T19:54:30.072Z,84.33
2022-11-10T20:00:01.481Z,84.48
2022-11-10T20:05:33.203Z,84.78
2022-11-10T20:11:05.061Z,86.62
2022-11-10T20:16:36.957Z,87.88
2022-11-10T20:22:08.819Z,87.87
2022-11-10T20:27:40.303Z,86.92
2022-11-10T20:33:12.405Z,86.58
2022-11-10T20:38:44.253Z,86.40
2022-11-10T20:44:16.222Z,86.29
2022-11-10T20:49:47.991Z,86.99
2022-11-10T20:55:43.593Z,88.22
2022-11-10T21:00:51.542Z,87.39
2022-11-10T21:06:23.520Z,87.23
2022-11-10T21:11:55.138Z,87.36
2022-11-10T21:17:26.991Z,87.28
2022-11-10T21:23:03.164Z,87.28
2022-11-10T21:28:30.592Z,87.13
2022-11-10T21:34:02.003Z,87.03
2022-11-10T21:45:03.687Z,87.66
2022-11-10T21:52:56.770Z,87.37
2022-11-10T21:58:28.682Z,87.39
2022-11-10T22:04:00.440Z,87.21
2022-11-10T22:15:02.091Z,88.00
2022-11-10T22:20:34.004Z,87.65
2022-11-10T22:26:06.037Z,87.53
2022-11-10T22:31:38.151Z,87.39
2022-11-10T22:37:09.915Z,87.43
2022-11-10T22:42:41.590Z,87.43
2022-11-10T22:48:13.386Z,87.24
2022-11-10T22:53:45.071Z,87.29
2022-11-10T22:59:16.931Z,87.24
2022-11-10T23:04:48.510Z,87.20
2022-11-10T23:10:20.416Z,87.23
2022-11-10T23:15:52.297Z,87.34
2022-11-10T23:21:24.676Z,87.40
2022-11-10T23:26:56.235Z,88.70
2022-11-10T23:32:28.190Z,87.73
2022-11-10T23:37:59.790Z,88.01
2022-11-10T23:43:31.480Z,87.74
2022-11-10T23:49:03.396Z,87.57
2022-11-10T23:54:35.139Z,87.66
